^^
Your Local Weather - Clay, NY Station Historical Data
Daily Summary for January 17, 2017 Units:  English    Metric   Both
« Previous Day
Next Day »
Daily Weekly Monthly Yearly Custom
  High: Low: Average:
Temperature: 34.0 °F 24.1 °F 30.2 °F
Dew Point: 32.2 °F 20.5 °F 26.6 °F
Humidity: 93% 76% 86%
Wind Speed: 6.0mph 0.0mph 2.4mph
Wind Gust: 11.0mph - -
Wind- - East
Pressure: 30.22 in 29.82 in -
Precipitation: 0.82 in    
Historical Graphs
 
 
Tabular Data for January 17, 2017
Time Temperature Dew Point Pressure Wind Wind Speed Wind Gust Humidity Rainfall Rate (Hourly) solar
00:02 24.8 °F 20.9 °F 30.22 in Calm     85% 0.00 in 0 W/m2
00:08 24.7 °F 20.8 °F 30.22 in Calm     85% 0.00 in 0 W/m2
00:14 24.5 °F 20.6 °F 30.22 in Calm     85% 0.00 in 0 W/m2
00:20 24.4 °F 20.8 °F 30.21 in Calm     86% 0.00 in 0 W/m2
00:26 24.2 °F 20.6 °F 30.21 in Calm     86% 0.00 in 0 W/m2
00:32 24.1 °F 20.5 °F 30.21 in Calm     86% 0.00 in 0 W/m2
00:38 24.2 °F 20.6 °F 30.21 in Calm     86% 0.00 in 0 W/m2
00:44 24.4 °F 20.8 °F 30.21 in Calm     86% 0.00 in 0 W/m2
00:50 24.5 °F 20.9 °F 30.22 in Calm     86% 0.00 in 0 W/m2
00:56 24.7 °F 21.1 °F 30.22 in Calm     86% 0.00 in 0 W/m2
01:02 25.2 °F 21.9 °F 30.22 in Calm     87% 0.00 in 0 W/m2
01:08 25.4 °F 22.1 °F 30.22 in Calm     87% 0.00 in 0 W/m2
01:14 25.6 °F 22.3 °F 30.22 in Calm     87% 0.00 in 0 W/m2
01:20 25.8 °F 22.5 °F 30.22 in Calm     87% 0.00 in 0 W/m2
01:26 26.2 °F 22.9 °F 30.22 in Calm     87% 0.00 in 0 W/m2
01:32 26.5 °F 23.2 °F 30.22 in Calm     87% 0.00 in 0 W/m2
01:38 26.6 °F 23.0 °F 30.22 in Calm     86% 0.00 in 0 W/m2
01:46 26.6 °F 22.4 °F 30.21 in Calm     84% 0.00 in 0 W/m2
01:52 26.7 °F 22.8 °F 30.21 in Calm     85% 0.00 in 0 W/m2
01:58 26.6 °F 22.7 °F 30.21 in Calm     85% 0.00 in 0 W/m2
02:06 26.5 °F 22.6 °F 30.21 in Calm     85% 0.00 in 0 W/m2
02:12 26.4 °F 22.2 °F 30.21 in Calm     84% 0.00 in 0 W/m2
02:18 26.5 °F 22.3 °F 30.21 in Calm     84% 0.00 in 0 W/m2
02:24 26.9 °F 22.1 °F 30.21 in East 1.0 mph 2.0 mph 82% 0.00 in 0 W/m2
02:30 27.2 °F 22.1 °F 30.20 in NE 1.0 mph 1.0 mph 81% 0.00 in 0 W/m2
02:36 27.3 °F 21.9 °F 30.20 in NE 1.0 mph 1.0 mph 80% 0.00 in 0 W/m2
02:42 27.3 °F 21.9 °F 30.20 in Calm   2.0 mph 80% 0.00 in 0 W/m2
02:48 27.3 °F 21.9 °F 30.20 in Calm   2.0 mph 80% 0.00 in 0 W/m2
02:54 27.3 °F 21.9 °F 30.20 in Calm   1.0 mph 80% 0.00 in 0 W/m2
03:00 27.3 °F 21.9 °F 30.20 in Calm     80% 0.00 in 0 W/m2
03:06 27.3 °F 21.9 °F 30.20 in Calm   2.0 mph 80% 0.00 in 0 W/m2
03:12 27.3 °F 21.9 °F 30.20 in ENE 1.0 mph 1.0 mph 80% 0.00 in 0 W/m2
03:18 27.4 °F 22.0 °F 30.20 in ENE 1.0 mph 1.0 mph 80% 0.00 in 0 W/m2
03:24 27.3 °F 22.2 °F 30.20 in Calm   1.0 mph 81% 0.00 in 0 W/m2
03:30 27.4 °F 22.3 °F 30.20 in Calm   2.0 mph 81% 0.00 in 0 W/m2
03:36 27.4 °F 21.7 °F 30.20 in Calm   2.0 mph 79% 0.00 in 0 W/m2
03:42 27.5 °F 21.5 °F 30.20 in Calm   1.0 mph 78% 0.00 in 0 W/m2
03:48 27.5 °F 21.5 °F 30.20 in Calm   1.0 mph 78% 0.00 in 0 W/m2
03:54 27.4 °F 21.4 °F 30.20 in Calm     78% 0.00 in 0 W/m2
04:00 27.3 °F 21.9 °F 30.20 in Calm   1.0 mph 80% 0.00 in 0 W/m2
04:06 27.5 °F 21.5 °F 30.19 in ENE 1.0 mph 2.0 mph 78% 0.00 in 0 W/m2
04:12 27.7 °F 21.7 °F 30.20 in ENE 1.0 mph 2.0 mph 78% 0.00 in 0 W/m2
04:18 27.8 °F 21.5 °F 30.18 in ENE 1.0 mph 2.0 mph 77% 0.00 in 0 W/m2
04:24 27.8 °F 21.5 °F 30.18 in ENE 1.0 mph 2.0 mph 77% 0.00 in 0 W/m2
04:30 27.8 °F 21.2 °F 30.18 in Calm   1.0 mph 76% 0.00 in 0 W/m2
04:36 27.7 °F 21.4 °F 30.18 in Calm   1.0 mph 77% 0.00 in 0 W/m2
04:42 27.7 °F 21.1 °F 30.18 in Calm     76% 0.00 in 0 W/m2
04:48 27.7 °F 21.1 °F 30.18 in Calm   1.0 mph 76% 0.00 in 0 W/m2
04:54 27.6 °F 21.0 °F 30.18 in Calm     76% 0.00 in 0 W/m2
05:00 27.4 °F 21.1 °F 30.18 in Calm     77% 0.00 in 0 W/m2
05:06 27.4 °F 21.1 °F 30.17 in Calm     77% 0.00 in 0 W/m2
05:12 27.3 °F 21.0 °F 30.17 in Calm     77% 0.00 in 0 W/m2
05:18 27.2 °F 20.9 °F 30.17 in Calm   1.0 mph 77% 0.00 in 0 W/m2
05:24 27.1 °F 20.8 °F 30.17 in Calm     77% 0.00 in 0 W/m2
05:30 27.1 °F 21.5 °F 30.18 in Calm     79% 0.00 in 0 W/m2
05:36 27.0 °F 21.4 °F 30.17 in Calm     79% 0.00 in 0 W/m2
05:42 26.9 °F 21.3 °F 30.17 in Calm     79% 0.00 in 0 W/m2
05:48 26.8 °F 21.2 °F 30.17 in Calm     79% 0.00 in 0 W/m2
05:54 26.7 °F 21.4 °F 30.17 in Calm   1.0 mph 80% 0.00 in 0 W/m2
06:00 26.7 °F 21.9 °F 30.17 in Calm     82% 0.00 in 0 W/m2
06:06 26.7 °F 21.4 °F 30.17 in Calm   3.0 mph 80% 0.00 in 0 W/m2
06:12 26.7 °F 21.7 °F 30.17 in Calm   1.0 mph 81% 0.00 in 0 W/m2
06:18 26.8 °F 21.5 °F 30.17 in Calm   1.0 mph 80% 0.00 in 0 W/m2
06:24 26.8 °F 21.5 °F 30.17 in Calm   2.0 mph 80% 0.00 in 0 W/m2
06:30 26.8 °F 21.5 °F 30.17 in Calm     80% 0.00 in 0 W/m2
06:36 26.8 °F 21.5 °F 30.16 in Calm     80% 0.00 in 0 W/m2
06:42 26.8 °F 21.5 °F 30.16 in Calm     80% 0.00 in 0 W/m2
06:48 26.9 °F 21.6 °F 30.16 in Calm     80% 0.00 in 0 W/m2
06:54 26.9 °F 21.6 °F 30.16 in Calm   2.0 mph 80% 0.00 in 0 W/m2
07:00 27.0 °F 21.4 °F 30.16 in Calm     79% 0.00 in 0 W/m2
07:06 27.1 °F 21.5 °F 30.15 in ENE 1.0 mph 2.0 mph 79% 0.00 in 0 W/m2
07:12 27.2 °F 21.5 °F 30.15 in ENE 1.0 mph 1.0 mph 79% 0.00 in 0 W/m2
07:18 27.3 °F 21.6 °F 30.15 in ENE 1.0 mph 3.0 mph 79% 0.00 in 0 W/m2
07:24 27.3 °F 21.6 °F 30.15 in ENE 1.0 mph 4.0 mph 79% 0.00 in 0 W/m2
07:30 27.3 °F 21.6 °F 30.15 in ENE 1.0 mph 2.0 mph 79% 0.00 in 0 W/m2
07:36 27.3 °F 21.6 °F 30.14 in ENE 2.0 mph 2.0 mph 79% 0.00 in 0 W/m2
07:42 27.3 °F 21.9 °F 30.14 in NE 1.0 mph 3.0 mph 80% 0.00 in 5 W/m2
07:48 27.3 °F 21.9 °F 30.14 in ENE 2.0 mph 3.0 mph 80% 0.00 in 7 W/m2
07:54 27.3 °F 21.9 °F 30.14 in East 2.0 mph 2.0 mph 80% 0.00 in 9 W/m2
08:00 27.4 °F 22.0 °F 30.14 in East 1.0 mph 1.0 mph 80% 0.00 in 11 W/m2
08:06 27.4 °F 22.0 °F 30.14 in ENE 2.0 mph 3.0 mph 80% 0.00 in 14 W/m2
08:12 27.4 °F 21.7 °F 30.13 in East 3.0 mph 6.0 mph 79% 0.00 in 18 W/m2
08:18 27.6 °F 21.9 °F 30.13 in ENE 3.0 mph 6.0 mph 79% 0.00 in 19 W/m2
08:24 27.7 °F 22.0 °F 30.12 in NE 2.0 mph 5.0 mph 79% 0.00 in 23 W/m2
08:30 28.0 °F 22.3 °F 30.12 in East 2.0 mph 2.0 mph 79% 0.00 in 21 W/m2
08:36 28.1 °F 22.4 °F 30.12 in East 2.0 mph 2.0 mph 79% 0.00 in 23 W/m2
08:42 28.3 °F 22.6 °F 30.11 in East 2.0 mph 3.0 mph 79% 0.00 in 28 W/m2
08:48 28.4 °F 22.7 °F 30.11 in East 2.0 mph 4.0 mph 79% 0.00 in 40 W/m2
08:54 28.5 °F 22.8 °F 30.11 in East 2.0 mph 5.0 mph 79% 0.00 in 49 W/m2
09:00 28.7 °F 23.0 °F 30.11 in ENE 2.0 mph 2.0 mph 79% 0.00 in 56 W/m2
09:06 28.9 °F 22.9 °F 30.10 in NE 1.0 mph 2.0 mph 78% 0.00 in 40 W/m2
09:12 29.0 °F 23.3 °F 30.10 in SE 1.0 mph 2.0 mph 79% 0.00 in 35 W/m2
09:18 29.1 °F 23.4 °F 30.10 in ESE 1.0 mph 2.0 mph 79% 0.00 in 39 W/m2
09:24 29.2 °F 23.2 °F 30.10 in ENE 1.0 mph 4.0 mph 78% 0.00 in 49 W/m2
09:30 29.1 °F 23.1 °F 30.10 in ENE 2.0 mph 4.0 mph 78% 0.00 in 47 W/m2
09:36 29.1 °F 23.1 °F 30.10 in NE 3.0 mph 4.0 mph 78% 0.00 in 42 W/m2
09:42 29.0 °F 23.0 °F 30.10 in ENE 3.0 mph 5.0 mph 78% 0.00 in 39 W/m2
09:48 28.9 °F 22.6 °F 30.10 in East 3.0 mph 7.0 mph 77% 0.00 in 32 W/m2
09:54 29.0 °F 23.0 °F 30.10 in ENE 3.0 mph 5.0 mph 78% 0.00 in 35 W/m2
10:00 29.0 °F 23.0 °F 30.10 in ENE 3.0 mph 3.0 mph 78% 0.00 in 33 W/m2
10:06 29.2 °F 23.2 °F 30.10 in East 2.0 mph 5.0 mph 78% 0.00 in 30 W/m2
10:12 29.4 °F 24.0 °F 30.10 in East 1.0 mph 2.0 mph 80% 0.00 in 30 W/m2
10:18 29.5 °F 24.1 °F 30.10 in East 1.0 mph 2.0 mph 80% 0.00 in 37 W/m2
10:26 29.6 °F 24.8 °F 30.10 in ENE 1.0 mph 3.0 mph 82% 0.00 in 35 W/m2
10:32 29.7 °F 25.2 °F 30.09 in East 1.0 mph 1.0 mph 83% 0.00 in 33 W/m2
10:38 29.7 °F 25.2 °F 30.09 in ENE 2.0 mph 3.0 mph 83% 0.00 in 32 W/m2
10:44 29.8 °F 25.3 °F 30.09 in ENE 2.0 mph 3.0 mph 83% 0.00 in 39 W/m2
10:50 29.8 °F 25.3 °F 30.07 in East 3.0 mph 3.0 mph 83% 0.00 in 44 W/m2
10:56 29.8 °F 25.6 °F 30.07 in East 4.0 mph 4.0 mph 84% 0.00 in 51 W/m2
11:04 29.9 °F 25.9 °F 30.06 in ENE 4.0 mph 4.0 mph 85% 0.00 in 56 W/m2
11:10 30.0 °F 26.0 °F 30.05 in ENE 4.0 mph 4.0 mph 85% 0.00 in 60 W/m2
11:16 30.2 °F 26.2 °F 30.04 in ENE 4.0 mph 8.0 mph 85% 0.00 in 79 W/m2
11:22 30.3 °F 26.0 °F 30.04 in East 5.0 mph 6.0 mph 84% 0.00 in 56 W/m2
11:28 30.5 °F 26.5 °F 30.03 in ENE 4.0 mph 6.0 mph 85% 0.07 in 69 W/m2
11:34 30.8 °F 26.8 °F 30.03 in East 3.0 mph 5.0 mph 85% 0.06 in 67 W/m2
11:40 31.0 °F 27.3 °F 30.03 in East 2.0 mph 2.0 mph 86% 0.04 in 60 W/m2
11:46 31.2 °F 27.5 °F 30.02 in ENE 3.0 mph 8.0 mph 86% 0.00 in 54 W/m2
11:52 31.4 °F 27.7 °F 30.01 in ENE 3.0 mph 3.0 mph 86% 0.00 in 69 W/m2
11:58 31.6 °F 27.9 °F 30.01 in East 3.0 mph 4.0 mph 86% 0.12 in 42 W/m2
12:06 31.8 °F 28.4 °F 30.00 in ENE 2.0 mph 3.0 mph 87% 0.05 in 81 W/m2
12:12 32.0 °F 28.6 °F 29.99 in ESE 4.0 mph 4.0 mph 87% 0.00 in 81 W/m2
12:18 32.1 °F 28.7 °F 29.98 in East 3.0 mph 8.0 mph 87% 0.00 in 62 W/m2
12:26 32.2 °F 28.5 °F 29.98 in ENE 4.0 mph 7.0 mph 86% 0.00 in 37 W/m2
12:32 32.3 °F 28.6 °F 29.98 in SE 3.0 mph 4.0 mph 86% 0.00 in 28 W/m2
12:38 32.4 °F 28.7 °F 29.98 in SE 3.0 mph 7.0 mph 86% 0.00 in 21 W/m2
12:44 32.5 °F 28.8 °F 29.98 in East 3.0 mph 3.0 mph 86% 0.00 in 14 W/m2
12:50 32.6 °F 29.2 °F 29.99 in ENE 2.0 mph 2.0 mph 87% 0.00 in 11 W/m2
12:56 32.7 °F 29.3 °F 29.99 in East 3.0 mph 7.0 mph 87% 0.09 in 9 W/m2
13:02 32.5 °F 29.3 °F 29.98 in ENE 3.0 mph 3.0 mph 88% 0.06 in 9 W/m2
13:08 32.5 °F 29.3 °F 29.98 in ENE 3.0 mph 5.0 mph 88% 0.32 in 14 W/m2
13:16 32.5 °F 29.6 °F 29.97 in ENE 3.0 mph 3.0 mph 89% 0.19 in 19 W/m2
13:22 32.4 °F 29.5 °F 29.96 in ENE 4.0 mph 5.0 mph 89% 0.44 in 9 W/m2
13:28 32.3 °F 29.4 °F 29.95 in ENE 5.0 mph 7.0 mph 89% 0.26 in 14 W/m2
13:34 32.2 °F 29.3 °F 29.95 in ENE 5.0 mph 5.0 mph 89% 0.16 in 18 W/m2
13:40 32.2 °F 29.3 °F 29.95 in East 5.0 mph 7.0 mph 89% 0.17 in 16 W/m2
13:46 32.2 °F 29.6 °F 29.94 in NE 6.0 mph 7.0 mph 90% 0.29 in 9 W/m2
13:52 32.2 °F 29.6 °F 29.94 in ESE 6.0 mph 7.0 mph 90% 0.32 in 9 W/m2
13:58 32.3 °F 29.7 °F 29.94 in East 6.0 mph 7.0 mph 90% 0.23 in 12 W/m2
14:04 32.3 °F 29.7 °F 29.93 in East 5.0 mph 7.0 mph 90% 0.23 in 11 W/m2
14:10 32.4 °F 30.1 °F 29.93 in NE 5.0 mph 7.0 mph 91% 0.12 in 11 W/m2
14:16 32.3 °F 30.0 °F 29.92 in ESE 6.0 mph 9.0 mph 91% 0.14 in 25 W/m2
14:22 32.4 °F 30.1 °F 29.95 in SE 4.0 mph 5.0 mph 91% 0.21 in 5 W/m2
14:28 32.4 °F 30.1 °F 29.96 in ENE 3.0 mph 5.0 mph 91% 0.37 in 9 W/m2
14:34 32.3 °F 30.0 °F 29.95 in ENE 3.0 mph 3.0 mph 91% 0.59 in 14 W/m2
14:40 32.3 °F 30.0 °F 29.94 in ENE 3.0 mph 3.0 mph 91% 0.23 in 16 W/m2
14:46 32.3 °F 30.0 °F 29.93 in East 3.0 mph 5.0 mph 91% 0.34 in 12 W/m2
14:52 32.3 °F 30.2 °F 29.92 in SE 5.0 mph 7.0 mph 92% 0.25 in 11 W/m2
14:58 32.3 °F 30.2 °F 29.92 in ENE 6.0 mph 8.0 mph 92% 0.14 in 12 W/m2
15:04 32.3 °F 30.2 °F 29.92 in East 6.0 mph 6.0 mph 92% 0.19 in 11 W/m2
15:10 32.3 °F 30.2 °F 29.92 in East 5.0 mph 5.0 mph 92% 0.21 in 12 W/m2
15:16 32.3 °F 30.2 °F 29.92 in East 5.0 mph 8.0 mph 92% 0.22 in 14 W/m2
15:22 32.4 °F 30.3 °F 29.92 in East 5.0 mph 6.0 mph 92% 0.11 in 12 W/m2
15:28 32.5 °F 30.4 °F 29.92 in SE 5.0 mph 6.0 mph 92% 0.15 in 14 W/m2
15:34 32.5 °F 30.4 °F 29.92 in East 4.0 mph 5.0 mph 92% 0.22 in 16 W/m2
15:40 32.6 °F 30.5 °F 29.92 in SE 4.0 mph 4.0 mph 92% 0.11 in 14 W/m2
15:46 32.6 °F 30.5 °F 29.91 in NE 3.0 mph 7.0 mph 92% 0.10 in 14 W/m2
15:52 32.6 °F 30.5 °F 29.91 in East 5.0 mph 5.0 mph 92% 0.10 in 11 W/m2
15:58 32.6 °F 30.5 °F 29.91 in ENE 4.0 mph 5.0 mph 92% 0.12 in 11 W/m2
16:04 32.5 °F 30.4 °F 29.91 in SE 5.0 mph 5.0 mph 92% 0.06 in 11 W/m2
16:10 32.5 °F 30.4 °F 29.91 in ESE 4.0 mph 4.0 mph 92% 0.05 in 11 W/m2
16:16 32.5 °F 30.4 °F 29.90 in ENE 4.0 mph 4.0 mph 92% 0.09 in 9 W/m2
16:22 32.6 °F 30.5 °F 29.90 in NE 4.0 mph 7.0 mph 92% 0.07 in 5 W/m2
16:28 32.5 °F 30.4 °F 29.90 in ENE 5.0 mph 7.0 mph 92% 0.13 in 7 W/m2
16:34 32.6 °F 30.5 °F 29.90 in East 4.0 mph 4.0 mph 92% 0.08 in 7 W/m2
16:40 32.7 °F 30.6 °F 29.90 in SE 4.0 mph 4.0 mph 92% 0.04 in 5 W/m2
16:46 32.6 °F 30.8 °F 29.90 in ENE 4.0 mph 9.0 mph 93% 0.04 in 0 W/m2
16:52 32.6 °F 30.5 °F 29.89 in ESE 4.0 mph 7.0 mph 92% 0.04 in 0 W/m2
16:58 32.7 °F 30.9 °F 29.89 in East 4.0 mph 7.0 mph 93% 0.04 in 0 W/m2
17:04 32.6 °F 30.8 °F 29.89 in ENE 5.0 mph 9.0 mph 93% 0.04 in 0 W/m2
17:10 32.6 °F 30.8 °F 29.89 in East 6.0 mph 6.0 mph 93% 0.04 in 0 W/m2
17:16 32.7 °F 30.9 °F 29.89 in ENE 5.0 mph 6.0 mph 93% 0.00 in 0 W/m2
17:22 32.7 °F 30.9 °F 29.89 in ENE 5.0 mph 9.0 mph 93% 0.00 in 0 W/m2
17:28 32.7 °F 30.9 °F 29.89 in ESE 4.0 mph 9.0 mph 93% 0.00 in 0 W/m2
17:34 32.7 °F 30.9 °F 29.89 in East 4.0 mph 7.0 mph 93% 0.00 in 0 W/m2
17:40 32.6 °F 30.8 °F 29.89 in ESE 4.0 mph 4.0 mph 93% 0.00 in 0 W/m2
17:46 32.6 °F 30.8 °F 29.89 in ENE 4.0 mph 11.0 mph 93% 0.00 in 0 W/m2
17:52 32.7 °F 30.6 °F 29.88 in East 5.0 mph 5.0 mph 92% 0.10 in 0 W/m2
17:58 32.7 °F 30.6 °F 29.88 in East 4.0 mph 5.0 mph 92% 0.08 in 0 W/m2
18:04 32.7 °F 30.9 °F 29.88 in ESE 4.0 mph 8.0 mph 93% 0.09 in 0 W/m2
18:10 32.7 °F 30.6 °F 29.88 in ENE 4.0 mph 4.0 mph 92% 0.11 in 0 W/m2
18:16 32.7 °F 30.9 °F 29.88 in ENE 5.0 mph 8.0 mph 93% 0.08 in 0 W/m2
18:22 32.8 °F 31.0 °F 29.88 in ENE 6.0 mph 6.0 mph 93% 0.05 in 0 W/m2
18:28 32.8 °F 31.0 °F 29.88 in East 4.0 mph 6.0 mph 93% 0.05 in 0 W/m2
18:34 32.8 °F 30.7 °F 29.88 in ENE 4.0 mph 9.0 mph 92% 0.18 in 0 W/m2
18:40 32.8 °F 31.0 °F 29.88 in ENE 5.0 mph 5.0 mph 93% 0.13 in 0 W/m2
18:46 32.9 °F 31.1 °F 29.88 in East 3.0 mph 5.0 mph 93% 0.07 in 0 W/m2
18:52 32.9 °F 31.1 °F 29.87 in NNE 3.0 mph 4.0 mph 93% 0.07 in 0 W/m2
18:58 32.9 °F 31.1 °F 29.87 in ESE 3.0 mph 8.0 mph 93% 0.04 in 0 W/m2
19:04 32.9 °F 31.1 °F 29.87 in ENE 4.0 mph 5.0 mph 93% 0.00 in 0 W/m2
19:10 33.0 °F 31.2 °F 29.87 in ENE 4.0 mph 4.0 mph 93% 0.00 in 0 W/m2
19:16 33.0 °F 31.2 °F 29.87 in ENE 4.0 mph 7.0 mph 93% 0.00 in 0 W/m2
19:22 33.0 °F 31.2 °F 29.86 in East 4.0 mph 6.0 mph 93% 0.00 in 0 W/m2
19:30 33.0 °F 31.2 °F 29.85 in SE 5.0 mph 6.0 mph 93% 0.00 in 0 W/m2
19:36 33.1 °F 31.3 °F 29.86 in East 4.0 mph 10.0 mph 93% 0.00 in 0 W/m2
19:42 33.1 °F 31.3 °F 29.86 in East 3.0 mph 4.0 mph 93% 0.00 in 0 W/m2
19:48 33.1 °F 31.3 °F 29.86 in ENE 2.0 mph 5.0 mph 93% 0.00 in 0 W/m2
19:54 33.2 °F 31.4 °F 29.86 in East 3.0 mph 3.0 mph 93% 0.00 in 0 W/m2
20:00 33.3 °F 31.5 °F 29.86 in ENE 3.0 mph 5.0 mph 93% 0.00 in 0 W/m2
20:06 33.3 °F 31.5 °F 29.86 in East 4.0 mph 6.0 mph 93% 0.00 in 0 W/m2
20:12 33.4 °F 31.6 °F 29.85 in ENE 4.0 mph 5.0 mph 93% 0.00 in 0 W/m2
20:18 33.5 °F 31.7 °F 29.85 in ENE 4.0 mph 7.0 mph 93% 0.00 in 0 W/m2
20:24 33.5 °F 31.7 °F 29.85 in East 4.0 mph 5.0 mph 93% 0.00 in 0 W/m2
20:30 33.5 °F 31.7 °F 29.84 in NE 4.0 mph 4.0 mph 93% 0.00 in 0 W/m2
20:36 33.5 °F 31.7 °F 29.84 in East 3.0 mph 4.0 mph 93% 0.00 in 0 W/m2
20:42 33.5 °F 31.7 °F 29.84 in ENE 3.0 mph 5.0 mph 93% 0.00 in 0 W/m2
20:48 33.6 °F 31.8 °F 29.84 in East 3.0 mph 7.0 mph 93% 0.00 in 0 W/m2
20:54 33.6 °F 31.8 °F 29.84 in East 3.0 mph 4.0 mph 93% 0.00 in 0 W/m2
21:00 33.6 °F 31.8 °F 29.84 in ENE 3.0 mph 7.0 mph 93% 0.00 in 0 W/m2
21:06 33.6 °F 31.8 °F 29.84 in ENE 4.0 mph 7.0 mph 93% 0.00 in 0 W/m2
21:12 33.7 °F 31.9 °F 29.84 in ENE 4.0 mph 5.0 mph 93% 0.00 in 0 W/m2
21:18 33.7 °F 31.9 °F 29.84 in ENE 4.0 mph 5.0 mph 93% 0.00 in 0 W/m2
21:24 33.7 °F 31.9 °F 29.84 in East 3.0 mph 4.0 mph 93% 0.00 in 0 W/m2
21:30 33.7 °F 31.9 °F 29.84 in NE 3.0 mph 3.0 mph 93% 0.00 in 0 W/m2
21:36 33.7 °F 31.9 °F 29.84 in East 3.0 mph 3.0 mph 93% 0.00 in 0 W/m2
21:42 33.7 °F 31.9 °F 29.84 in East 2.0 mph 2.0 mph 93% 0.00 in 0 W/m2
21:48 33.7 °F 31.9 °F 29.84 in ENE 3.0 mph 3.0 mph 93% 0.00 in 0 W/m2
21:54 33.7 °F 31.9 °F 29.84 in NE 4.0 mph 5.0 mph 93% 0.00 in 0 W/m2
22:00 33.6 °F 31.8 °F 29.84 in NE 4.0 mph 4.0 mph 93% 0.00 in 0 W/m2
22:06 33.6 °F 31.8 °F 29.83 in ENE 3.0 mph 4.0 mph 93% 0.00 in 0 W/m2
22:12 33.6 °F 31.8 °F 29.83 in ENE 3.0 mph 3.0 mph 93% 0.00 in 0 W/m2
22:18 33.6 °F 31.8 °F 29.83 in ENE 2.0 mph 4.0 mph 93% 0.00 in 0 W/m2
22:24 33.6 °F 31.8 °F 29.83 in ENE 3.0 mph 3.0 mph 93% 0.00 in 0 W/m2
22:30 33.6 °F 31.8 °F 29.83 in ENE 2.0 mph 3.0 mph 93% 0.00 in 0 W/m2
22:36 33.6 °F 31.8 °F 29.83 in ENE 2.0 mph 3.0 mph 93% 0.00 in 0 W/m2
22:42 33.6 °F 31.8 °F 29.84 in ENE 3.0 mph 4.0 mph 93% 0.00 in 0 W/m2
22:48 33.6 °F 31.8 °F 29.84 in East 2.0 mph 5.0 mph 93% 0.00 in 0 W/m2
22:54 33.5 °F 31.7 °F 29.84 in ENE 3.0 mph 3.0 mph 93% 0.00 in 0 W/m2
23:00 33.6 °F 31.8 °F 29.83 in NE 3.0 mph 5.0 mph 93% 0.00 in 0 W/m2
23:06 33.6 °F 31.8 °F 29.83 in ENE 3.0 mph 5.0 mph 93% 0.00 in 0 W/m2
23:08 33.6 °F 31.8 °F 29.83 in ENE 3.0 mph 5.0 mph 93% 0.00 in 0 W/m2
23:14 33.6 °F 31.8 °F 29.83 in East 3.0 mph 5.0 mph 93% 0.00 in 0 W/m2
23:20 33.7 °F 31.9 °F 29.82 in ESE 3.0 mph 3.0 mph 93% 0.00 in 0 W/m2
23:26 33.7 °F 31.9 °F 29.82 in East 4.0 mph 6.0 mph 93% 0.00 in 0 W/m2
23:32 33.7 °F 31.9 °F 29.82 in ENE 3.0 mph 3.0 mph 93% 0.00 in 0 W/m2
23:38 33.7 °F 31.9 °F 29.82 in East 3.0 mph 3.0 mph 93% 0.00 in 0 W/m2
23:44 33.9 °F 32.1 °F 29.82 in ENE 3.0 mph 4.0 mph 93% 0.00 in 0 W/m2
23:50 33.9 °F 32.1 °F 29.82 in ENE 2.0 mph 2.0 mph 93% 0.00 in 0 W/m2
23:56 34.0 °F 32.2 °F 29.82 in ENE 2.0 mph 5.0 mph 93% 0.00 in 0 W/m2
Country Meadow, Clay, NY, USA
Compliments of Weather Underground - 2 mb